sensor_id;sensor_type;location;lat;lon;timestamp;pressure;altitude;pressure_sealevel;temperature;humidity
9525;BME280;15940;48.734;9.112;2023-07-13T00:00:18;96515.25;;;18.93;59.01
9525;BME280;15940;48.734;9.112;2023-07-13T00:02:46;96521.28;;;18.91;59.56
9525;BME280;15940;48.734;9.112;2023-07-13T00:05:13;96516.88;;;18.88;59.32
9525;BME280;15940;48.734;9.112;2023-07-13T00:07:40;96518.72;;;18.93;61.02
9525;BME280;15940;48.734;9.112;2023-07-13T00:10:08;96519.78;;;18.82;58.85
9525;BME280;15940;48.734;9.112;2023-07-13T00:12:37;96508.06;;;18.82;60.24
9525;BME280;15940;48.734;9.112;2023-07-13T00:15:12;96514.84;;;18.81;60.19
9525;BME280;15940;48.734;9.112;2023-07-13T00:17:39;96509.28;;;18.66;59.77
9525;BME280;15940;48.734;9.112;2023-07-13T00:20:09;96512.16;;;18.60;60.52
9525;BME280;15940;48.734;9.112;2023-07-13T00:22:37;96510.47;;;18.57;60.13
9525;BME280;15940;48.734;9.112;2023-07-13T00:25:05;96511.75;;;18.56;61.78
9525;BME280;15940;48.734;9.112;2023-07-13T00:27:32;96513.63;;;18.61;62.19
9525;BME280;15940;48.734;9.112;2023-07-13T00:29:59;96512.47;;;18.49;60.95
9525;BME280;15940;48.734;9.112;2023-07-13T00:32:27;96513.03;;;18.55;62.29
9525;BME280;15940;48.734;9.112;2023-07-13T00:34:54;96510.78;;;18.46;60.65
9525;BME280;15940;48.734;9.112;2023-07-13T00:37:23;96503.31;;;18.46;61.00
9525;BME280;15940;48.734;9.112;2023-07-13T00:39:50;96513.81;;;18.63;62.26
9525;BME280;15940;48.734;9.112;2023-07-13T00:42:17;96517.34;;;18.71;61.92
9525;BME280;15940;48.734;9.112;2023-07-13T00:46:02;96517.53;;;18.73;61.28
9525;BME280;15940;48.734;9.112;2023-07-13T00:47:54;96522.47;;;18.67;62.06
9525;BME280;15940;48.734;9.112;2023-07-13T00:50:22;96521.75;;;18.67;60.49
9525;BME280;15940;48.734;9.112;2023-07-13T00:52:53;96512.41;;;18.70;61.75
9525;BME280;15940;48.734;9.112;2023-07-13T00:55:23;96527.97;;;18.75;60.90
9525;BME280;15940;48.734;9.112;2023-07-13T00:57:50;96531.81;;;18.72;61.55
9525;BME280;15940;48.734;9.112;2023-07-13T01:00:17;96534.59;;;18.79;60.83
9525;BME280;15940;48.734;9.112;2023-07-13T01:02:47;96534.41;;;18.85;59.87
9525;BME280;15940;48.734;9.112;2023-07-13T01:05:17;96535.59;;;18.97;59.85
9525;BME280;15940;48.734;9.112;2023-07-13T01:07:45;96531.91;;;18.95;58.84
9525;BME280;15940;48.734;9.112;2023-07-13T01:10:15;96534.78;;;18.81;59.94
9525;BME280;15940;48.734;9.112;2023-07-13T01:12:42;96539.91;;;18.77;60.32
9525;BME280;15940;48.734;9.112;2023-07-13T01:15:38;96542.28;;;18.81;59.95
9525;BME280;15940;48.734;9.112;2023-07-13T01:18:07;96535.13;;;18.78;59.56
9525;BME280;15940;48.734;9.112;2023-07-13T01:20:35;96534.38;;;18.70;59.34
9525;BME280;15940;48.734;9.112;2023-07-13T01:23:06;96533.44;;;18.67;60.61
9525;BME280;15940;48.734;9.112;2023-07-13T01:25:34;96526.78;;;18.63;59.89
9525;BME280;15940;48.734;9.112;2023-07-13T01:28:02;96532.06;;;18.53;60.80
9525;BME280;15940;48.734;9.112;2023-07-13T01:30:29;96536.75;;;18.45;59.11
9525;BME280;15940;48.734;9.112;2023-07-13T01:32:56;96536.75;;;18.45;60.79
9525;BME280;15940;48.734;9.112;2023-07-13T01:35:23;96549.31;;;18.33;60.43
9525;BME280;15940;48.734;9.112;2023-07-13T01:37:50;96544.84;;;18.22;60.89
9525;BME280;15940;48.734;9.112;2023-07-13T01:40:19;96546.94;;;18.08;61.21
9525;BME280;15940;48.734;9.112;2023-07-13T01:42:46;96547.78;;;18.24;62.09
9525;BME280;15940;48.734;9.112;2023-07-13T01:45:13;96544.91;;;18.09;61.12
9525;BME280;15940;48.734;9.112;2023-07-13T01:47:40;96543.50;;;18.15;61.81
9525;BME280;15940;48.734;9.112;2023-07-13T01:50:08;96540.03;;;18.15;61.68
9525;BME280;15940;48.734;9.112;2023-07-13T01:52:35;96540.28;;;18.24;61.97
9525;BME280;15940;48.734;9.112;2023-07-13T01:55:03;96535.34;;;18.23;61.38
9525;BME280;15940;48.734;9.112;2023-07-13T01:57:31;96547.19;;;18.18;61.20
9525;BME280;15940;48.734;9.112;2023-07-13T01:59:58;96546.13;;;18.21;61.14
9525;BME280;15940;48.734;9.112;2023-07-13T02:02:26;96551.53;;;18.13;61.84
9525;BME280;15940;48.734;9.112;2023-07-13T02:04:53;96544.91;;;18.09;61.90
9525;BME280;15940;48.734;9.112;2023-07-13T02:07:19;96539.19;;;17.99;61.41
9525;BME280;15940;48.734;9.112;2023-07-13T02:09:47;96550.88;;;17.99;61.03
9525;BME280;15940;48.734;9.112;2023-07-13T02:12:14;96550.16;;;17.99;61.26
9525;BME280;15940;48.734;9.112;2023-07-13T02:14:41;96551.91;;;17.89;60.65
9525;BME280;15940;48.734;9.112;2023-07-13T02:17:10;96551.97;;;17.76;61.92
9525;BME280;15940;48.734;9.112;2023-07-13T02:19:37;96552.22;;;17.64;61.74
9525;BME280;15940;48.734;9.112;2023-07-13T02:22:04;96552.53;;;17.61;62.16
9525;BME280;15940;48.734;9.112;2023-07-13T02:24:31;96554.53;;;17.60;62.01
9525;BME280;15940;48.734;9.112;2023-07-13T02:26:58;96553.06;;;17.59;62.94
9525;BME280;15940;48.734;9.112;2023-07-13T02:29:25;96554.34;;;17.58;62.87
9525;BME280;15940;48.734;9.112;2023-07-13T02:31:53;96556.22;;;17.63;62.10
9525;BME280;15940;48.734;9.112;2023-07-13T02:34:20;96556.00;;;17.61;63.23
9525;BME280;15940;48.734;9.112;2023-07-13T02:36:47;96563.19;;;17.64;62.01
9525;BME280;15940;48.734;9.112;2023-07-13T02:39:15;96564.53;;;17.71;62.46
9525;BME280;15940;48.734;9.112;2023-07-13T02:41:42;96568.53;;;17.70;62.09
9525;BME280;15940;48.734;9.112;2023-07-13T02:44:09;96567.50;;;17.60;61.51
9525;BME280;15940;48.734;9.112;2023-07-13T02:46:37;96567.84;;;17.56;61.22
9525;BME280;15940;48.734;9.112;2023-07-13T02:49:05;96561.94;;;17.52;62.69
9525;BME280;15940;48.734;9.112;2023-07-13T02:51:33;96565.09;;;17.56;62.25
9525;BME280;15940;48.734;9.112;2023-07-13T02:54:00;96566.44;;;17.63;62.70
9525;BME280;15940;48.734;9.112;2023-07-13T02:56:29;96558.00;;;17.74;61.94
9525;BME280;15940;48.734;9.112;2023-07-13T02:58:57;96560.94;;;17.76;62.58
9525;BME280;15940;48.734;9.112;2023-07-13T03:01:24;96572.28;;;17.80;61.98
9525;BME280;15940;48.734;9.112;2023-07-13T03:03:52;96570.81;;;17.79;61.78
9525;BME280;15940;48.734;9.112;2023-07-13T03:06:20;96573.78;;;17.68;62.50
9525;BME280;15940;48.734;9.112;2023-07-13T03:08:48;96577.72;;;17.73;62.69
9525;BME280;15940;48.734;9.112;2023-07-13T03:11:18;96569.75;;;17.82;61.97
9525;BME280;15940;48.734;9.112;2023-07-13T03:13:46;96565.69;;;17.76;62.14
9525;BME280;15940;48.734;9.112;2023-07-13T03:16:15;96566.84;;;17.67;62.25
9525;BME280;15940;48.734;9.112;2023-07-13T03:18:42;96576.69;;;17.62;62.95
9525;BME280;15940;48.734;9.112;2023-07-13T03:21:09;96576.13;;;17.64;63.27
9525;BME280;15940;48.734;9.112;2023-07-13T03:23:38;96573.41;;;17.64;63.53
9525;BME280;15940;48.734;9.112;2023-07-13T03:26:08;96577.19;;;17.61;63.54
9525;BME280;15940;48.734;9.112;2023-07-13T03:28:36;96580.66;;;17.75;63.14
9525;BME280;15940;48.734;9.112;2023-07-13T03:31:05;96592.19;;;17.81;63.39
9525;BME280;15940;48.734;9.112;2023-07-13T03:33:33;96596.63;;;17.84;62.88
9525;BME280;15940;48.734;9.112;2023-07-13T03:36:00;96594.94;;;17.81;63.21
9525;BME280;15940;48.734;9.112;2023-07-13T03:38:27;96588.66;;;17.93;62.48
9525;BME280;15940;48.734;9.112;2023-07-13T03:40:55;96600.81;;;17.85;62.95
9525;BME280;15940;48.734;9.112;2023-07-13T03:43:22;96596.09;;;17.85;62.57
9525;BME280;15940;48.734;9.112;2023-07-13T03:45:49;96592.91;;;17.81;62.71
9525;BME280;15940;48.734;9.112;2023-07-13T03:48:16;96597.63;;;17.94;62.51
9525;BME280;15940;48.734;9.112;2023-07-13T03:50:43;96598.69;;;17.91;62.35
9525;BME280;15940;48.734;9.112;2023-07-13T03:53:09;96602.56;;;17.95;62.55
9525;BME280;15940;48.734;9.112;2023-07-13T03:55:36;96605.91;;;18.02;61.95
9525;BME280;15940;48.734;9.112;2023-07-13T03:58:28;96606.66;;;18.02;61.61
9525;BME280;15940;48.734;9.112;2023-07-13T04:00:57;96608.31;;;18.05;61.29
9525;BME280;15940;48.734;9.112;2023-07-13T04:03:24;96609.03;;;18.06;61.63
9525;BME280;15940;48.734;9.112;2023-07-13T04:05:54;96616.66;;;17.99;61.53
9525;BME280;15940;48.734;9.112;2023-07-13T04:08:26;96608.91;;;18.11;61.40
9525;BME280;15940;48.734;9.112;2023-07-13T04:10:54;96606.38;;;18.13;61.46
9525;BME280;15940;48.734;9.112;2023-07-13T04:13:21;96616.25;;;18.16;61.32
9525;BME280;15940;48.734;9.112;2023-07-13T04:15:50;96623.63;;;18.21;60.96
9525;BME280;15940;48.734;9.112;2023-07-13T04:18:18;96622.88;;;18.21;61.30
9525;BME280;15940;48.734;9.112;2023-07-13T04:20:45;96621.13;;;18.31;60.59
9525;BME280;15940;48.734;9.112;2023-07-13T04:23:12;96623.53;;;18.35;60.54
9525;BME280;15940;48.734;9.112;2023-07-13T04:25:43;96623.72;;;18.37;60.53
9525;BME280;15940;48.734;9.112;2023-07-13T04:28:10;96633.38;;;18.30;59.87
9525;BME280;15940;48.734;9.112;2023-07-13T04:30:37;96627.19;;;18.37;60.57
9525;BME280;15940;48.734;9.112;2023-07-13T04:33:05;96618.06;;;18.35;60.22
9525;BME280;15940;48.734;9.112;2023-07-13T04:35:33;96625.66;;;18.28;60.38
9525;BME280;15940;48.734;9.112;2023-07-13T04:38:00;96625.81;;;18.23;60.51
9525;BME280;15940;48.734;9.112;2023-07-13T04:40:28;96629.03;;;18.14;61.00
9525;BME280;15940;48.734;9.112;2023-07-13T04:42:55;96635.38;;;18.09;60.77
9525;BME280;15940;48.734;9.112;2023-07-13T04:45:24;96636.84;;;18.10;60.70
9525;BME280;15940;48.734;9.112;2023-07-13T04:47:51;96633.19;;;18.07;61.66
9525;BME280;15940;48.734;9.112;2023-07-13T04:50:19;96629.78;;;17.93;61.90
9525;BME280;15940;48.734;9.112;2023-07-13T04:52:49;96620.88;;;17.80;61.55
9525;BME280;15940;48.734;9.112;2023-07-13T04:55:17;96632.03;;;17.82;61.90
9525;BME280;15940;48.734;9.112;2023-07-13T04:57:44;96631.69;;;17.85;61.88
9525;BME280;15940;48.734;9.112;2023-07-13T05:00:12;96637.72;;;17.84;62.18
9525;BME280;15940;48.734;9.112;2023-07-13T05:02:44;96638.84;;;17.88;62.21
9525;BME280;15940;48.734;9.112;2023-07-13T05:05:11;96644.34;;;17.88;62.68
9525;BME280;15940;48.734;9.112;2023-07-13T05:07:39;96640.47;;;17.84;60.86
9525;BME280;15940;48.734;9.112;2023-07-13T05:10:08;96634.28;;;17.70;59.36
9525;BME280;15940;48.734;9.112;2023-07-13T05:12:35;96634.16;;;17.76;61.20
9525;BME280;15940;48.734;9.112;2023-07-13T05:15:02;96638.03;;;17.80;59.41
9525;BME280;15940;48.734;9.112;2023-07-13T05:17:30;96640.31;;;17.89;61.17
9525;BME280;15940;48.734;9.112;2023-07-13T05:19:56;96641.00;;;18.03;61.01
9525;BME280;15940;48.734;9.112;2023-07-13T05:22:23;96645.84;;;18.10;59.30
9525;BME280;15940;48.734;9.112;2023-07-13T05:24:52;96645.22;;;18.25;60.08
9525;BME280;15940;48.734;9.112;2023-07-13T05:27:18;96638.94;;;18.17;59.10
9525;BME280;15940;48.734;9.112;2023-07-13T05:29:45;96638.94;;;18.17;59.68
9525;BME280;15940;48.734;9.112;2023-07-13T05:32:13;96648.97;;;18.14;60.00
9525;BME280;15940;48.734;9.112;2023-07-13T05:34:40;96653.78;;;18.21;59.52
9525;BME280;15940;48.734;9.112;2023-07-13T05:37:07;96654.09;;;17.97;58.18
9525;BME280;15940;48.734;9.112;2023-07-13T05:39:35;96650.88;;;17.85;58.36
9525;BME280;15940;48.734;9.112;2023-07-13T05:42:04;96649.81;;;17.88;59.55
9525;BME280;15940;48.734;9.112;2023-07-13T05:44:31;96654.34;;;17.86;59.54
9525;BME280;15940;48.734;9.112;2023-07-13T05:46:58;96655.22;;;17.81;59.48
9525;BME280;15940;48.734;9.112;2023-07-13T05:49:24;96661.66;;;17.83;60.37
9525;BME280;15940;48.734;9.112;2023-07-13T05:51:51;96649.00;;;17.80;59.85
9525;BME280;15940;48.734;9.112;2023-07-13T05:54:18;96662.91;;;17.82;60.11
9525;BME280;15940;48.734;9.112;2023-07-13T05:56:45;96655.63;;;17.85;58.71
9525;BME280;15940;48.734;9.112;2023-07-13T05:59:13;96658.09;;;17.75;59.06
9525;BME280;15940;48.734;9.112;2023-07-13T06:01:41;96667.25;;;17.78;60.03
9525;BME280;15940;48.734;9.112;2023-07-13T06:04:08;96669.00;;;17.88;59.25
9525;BME280;15940;48.734;9.112;2023-07-13T06:06:35;96665.66;;;17.82;58.03
9525;BME280;15940;48.734;9.112;2023-07-13T06:09:02;96675.44;;;17.91;58.38
9525;BME280;15940;48.734;9.112;2023-07-13T06:11:29;96682.97;;;17.98;59.50
9525;BME280;15940;48.734;9.112;2023-07-13T06:13:56;96676.75;;;17.97;56.47
9525;BME280;15940;48.734;9.112;2023-07-13T06:16:25;96674.03;;;18.18;57.81
9525;BME280;15940;48.734;9.112;2023-07-13T06:18:51;96680.25;;;18.19;55.79
9525;BME280;15940;48.734;9.112;2023-07-13T06:21:21;96689.22;;;18.19;56.59
9525;BME280;15940;48.734;9.112;2023-07-13T06:23:50;96688.16;;;18.22;56.17
9525;BME280;15940;48.734;9.112;2023-07-13T06:26:18;96684.69;;;18.22;55.11
9525;BME280;15940;48.734;9.112;2023-07-13T06:28:45;96697.03;;;18.36;55.45
9525;BME280;15940;48.734;9.112;2023-07-13T06:31:14;96700.97;;;18.27;55.28
9525;BME280;15940;48.734;9.112;2023-07-13T06:33:42;96703.75;;;18.48;58.37
9525;BME280;15940;48.734;9.112;2023-07-13T06:36:10;96706.69;;;18.71;56.02
9525;BME280;15940;48.734;9.112;2023-07-13T06:38:38;96703.56;;;18.96;56.76
9525;BME280;15940;48.734;9.112;2023-07-13T06:41:07;96704.66;;;19.29;53.09
9525;BME280;15940;48.734;9.112;2023-07-13T06:43:35;96711.84;;;19.39;53.97
9525;BME280;15940;48.734;9.112;2023-07-13T06:46:02;96714.28;;;19.43;53.77
9525;BME280;15940;48.734;9.112;2023-07-13T06:48:29;96710.00;;;19.63;53.24
9525;BME280;15940;48.734;9.112;2023-07-13T06:50:57;96716.66;;;19.83;51.32
9525;BME280;15940;48.734;9.112;2023-07-13T06:53:25;96712.25;;;19.87;51.82
9525;BME280;15940;48.734;9.112;2023-07-13T06:55:52;96708.81;;;20.02;50.76
9525;BME280;15940;48.734;9.112;2023-07-13T06:58:19;96703.50;;;20.04;48.28
9525;BME280;15940;48.734;9.112;2023-07-13T07:00:50;96708.69;;;20.23;49.30
9525;BME280;15940;48.734;9.112;2023-07-13T07:03:17;96706.47;;;20.21;48.14
9525;BME280;15940;48.734;9.112;2023-07-13T07:05:44;96711.47;;;20.38;49.60
9525;BME280;15940;48.734;9.112;2023-07-13T07:08:13;96711.06;;;20.34;47.11
9525;BME280;15940;48.734;9.112;2023-07-13T07:10:40;96718.44;;;20.62;48.68
9525;BME280;15940;48.734;9.112;2023-07-13T07:13:07;96716.09;;;20.59;45.74
9525;BME280;15940;48.734;9.112;2023-07-13T07:15:35;96723.06;;;20.67;48.01
9525;BME280;15940;48.734;9.112;2023-07-13T07:18:02;96726.53;;;20.75;46.51
9525;BME280;15940;48.734;9.112;2023-07-13T07:20:29;96726.34;;;21.04;48.33
9525;BME280;15940;48.734;9.112;2023-07-13T07:22:58;96719.88;;;21.24;47.48
9525;BME280;15940;48.734;9.112;2023-07-13T07:25:26;96721.34;;;21.25;48.16
9525;BME280;15940;48.734;9.112;2023-07-13T07:27:57;96727.03;;;21.35;46.05
9525;BME280;15940;48.734;9.112;2023-07-13T07:30:24;96727.75;;;21.43;45.37
9525;BME280;15940;48.734;9.112;2023-07-13T07:32:51;96720.34;;;21.61;47.51
9525;BME280;15940;48.734;9.112;2023-07-13T07:35:18;96718.41;;;21.79;46.14
9525;BME280;15940;48.734;9.112;2023-07-13T07:37:45;96718.25;;;21.69;46.93
9525;BME280;15940;48.734;9.112;2023-07-13T07:40:12;96717.34;;;21.74;45.45
9525;BME280;15940;48.734;9.112;2023-07-13T07:42:40;96717.38;;;22.07;45.64
9525;BME280;15940;48.734;9.112;2023-07-13T07:45:07;96723.25;;;22.11;42.64
9525;BME280;15940;48.734;9.112;2023-07-13T07:47:37;96724.53;;;22.10;43.10
9525;BME280;15940;48.734;9.112;2023-07-13T07:50:05;96726.09;;;22.28;45.08
9525;BME280;15940;48.734;9.112;2023-07-13T07:52:32;96721.81;;;22.60;42.61
9525;BME280;15940;48.734;9.112;2023-07-13T07:54:58;96719.16;;;22.69;42.66
9525;BME280;15940;48.734;9.112;2023-07-13T07:57:25;96721.25;;;22.61;42.80
9525;BME280;15940;48.734;9.112;2023-07-13T07:59:53;96715.78;;;22.78;42.92
9525;BME280;15940;48.734;9.112;2023-07-13T08:02:20;96728.91;;;22.95;43.94
9525;BME280;15940;48.734;9.112;2023-07-13T08:04:47;96727.94;;;23.00;42.64
9525;BME280;15940;48.734;9.112;2023-07-13T08:07:14;96727.13;;;22.65;43.11
9525;BME280;15940;48.734;9.112;2023-07-13T08:09:41;96729.19;;;22.82;43.35
9525;BME280;15940;48.734;9.112;2023-07-13T08:12:08;96724.84;;;22.96;41.97
9525;BME280;15940;48.734;9.112;2023-07-13T08:14:35;96722.97;;;22.99;40.79
9525;BME280;15940;48.734;9.112;2023-07-13T08:17:05;96730.25;;;23.29;40.98
9525;BME280;15940;48.734;9.112;2023-07-13T08:19:32;96729.59;;;23.38;40.79
9525;BME280;15940;48.734;9.112;2023-07-13T08:21:59;96738.53;;;23.46;39.54
9525;BME280;15940;48.734;9.112;2023-07-13T08:24:26;96726.78;;;23.63;40.50
9525;BME280;15940;48.734;9.112;2023-07-13T08:26:53;96723.00;;;23.68;40.62
9525;BME280;15940;48.734;9.112;2023-07-13T08:29:20;96725.72;;;24.03;39.34
9525;BME280;15940;48.734;9.112;2023-07-13T08:31:47;96720.44;;;23.97;39.64
9525;BME280;15940;48.734;9.112;2023-07-13T08:34:15;96725.66;;;24.20;40.23
9525;BME280;15940;48.734;9.112;2023-07-13T08:36:42;96724.59;;;24.15;39.99
9525;BME280;15940;48.734;9.112;2023-07-13T08:39:09;96723.56;;;24.11;37.60
9525;BME280;15940;48.734;9.112;2023-07-13T08:41:36;96728.19;;;23.99;38.52
9525;BME280;15940;48.734;9.112;2023-07-13T08:44:06;96729.66;;;23.82;39.11
9525;BME280;15940;48.734;9.112;2023-07-13T08:46:36;96733.16;;;23.83;39.02
9525;BME280;15940;48.734;9.112;2023-07-13T08:49:10;96727.19;;;24.04;39.07
9525;BME280;15940;48.734;9.112;2023-07-13T08:51:45;96728.53;;;24.12;39.66
9525;BME280;15940;48.734;9.112;2023-07-13T08:54:22;96724.09;;;24.27;38.91
9525;BME280;15940;48.734;9.112;2023-07-13T08:56:54;96735.78;;;24.62;37.75
9525;BME280;15940;48.734;9.112;2023-07-13T08:59:25;96727.22;;;24.77;38.74
9525;BME280;15940;48.734;9.112;2023-07-13T09:02:18;96729.75;;;24.19;37.66
9525;BME280;15940;48.734;9.112;2023-07-13T09:04:53;96729.03;;;24.45;40.17
9525;BME280;15940;48.734;9.112;2023-07-13T09:07:33;96730.63;;;24.95;38.72
9525;BME280;15940;48.734;9.112;2023-07-13T09:10:13;96737.72;;;25.34;36.96
9525;BME280;15940;48.734;9.112;2023-07-13T09:12:55;96734.50;;;25.57;37.89
9525;BME280;15940;48.734;9.112;2023-07-13T09:15:28;96735.97;;;25.39;37.47
9525;BME280;15940;48.734;9.112;2023-07-13T09:18:03;96728.94;;;25.57;38.34
9525;BME280;15940;48.734;9.112;2023-07-13T09:20:36;96734.09;;;25.42;38.07
9525;BME280;15940;48.734;9.112;2023-07-13T09:23:11;96741.88;;;24.97;36.98
9525;BME280;15940;48.734;9.112;2023-07-13T09:25:41;96739.78;;;24.78;37.33
9525;BME280;15940;48.734;9.112;2023-07-13T09:28:15;96739.50;;;24.84;38.48
9525;BME280;15940;48.734;9.112;2023-07-13T09:30:49;96748.03;;;25.05;38.37
9525;BME280;15940;48.734;9.112;2023-07-13T09:33:19;96728.38;;;25.49;37.74
9525;BME280;15940;48.734;9.112;2023-07-13T09:35:46;96735.09;;;25.27;37.51
9525;BME280;15940;48.734;9.112;2023-07-13T09:38:16;96741.56;;;24.83;38.04
9525;BME280;15940;48.734;9.112;2023-07-13T09:41:08;96737.31;;;24.92;37.59
9525;BME280;15940;48.734;9.112;2023-07-13T09:44:01;96741.22;;;25.25;37.26
9525;BME280;15940;48.734;9.112;2023-07-13T09:46:28;96735.22;;;25.39;37.77
9525;BME280;15940;48.734;9.112;2023-07-13T09:48:56;96739.75;;;25.44;38.38
9525;BME280;15940;48.734;9.112;2023-07-13T09:51:23;96736.72;;;25.78;37.29
9525;BME280;15940;48.734;9.112;2023-07-13T09:53:51;96739.31;;;25.67;35.81
9525;BME280;15940;48.734;9.112;2023-07-13T09:56:21;96742.06;;;25.09;38.04
9525;BME280;15940;48.734;9.112;2023-07-13T09:58:49;96732.03;;;24.76;37.74
9525;BME280;15940;48.734;9.112;2023-07-13T10:01:33;96736.16;;;24.21;38.60
9525;BME280;15940;48.734;9.112;2023-07-13T10:04:00;96731.56;;;24.07;39.21
9525;BME280;15940;48.734;9.112;2023-07-13T10:06:27;96736.53;;;24.08;39.82
9525;BME280;15940;48.734;9.112;2023-07-13T10:08:56;96728.13;;;24.43;39.15
9525;BME280;15940;48.734;9.112;2023-07-13T10:11:27;96725.22;;;24.23;39.04
9525;BME280;15940;48.734;9.112;2023-07-13T10:13:57;96729.47;;;24.25;39.73
9525;BME280;15940;48.734;9.112;2023-07-13T10:16:28;96733.38;;;24.39;39.09
9525;BME280;15940;48.734;9.112;2023-07-13T10:18:59;96732.47;;;24.36;38.68
9525;BME280;15940;48.734;9.112;2023-07-13T10:21:33;96732.94;;;24.42;39.90
9525;BME280;15940;48.734;9.112;2023-07-13T10:24:11;96732.16;;;24.69;38.16
9525;BME280;15940;48.734;9.112;2023-07-13T10:26:49;96734.34;;;24.70;39.47
9525;BME280;15940;48.734;9.112;2023-07-13T10:29:20;96728.41;;;24.74;39.46
9525;BME280;15940;48.734;9.112;2023-07-13T10:31:49;96730.06;;;24.96;37.42
9525;BME280;15940;48.734;9.112;2023-07-13T10:34:16;96731.69;;;25.09;38.86
9525;BME280;15940;48.734;9.112;2023-07-13T10:36:45;96729.81;;;25.12;38.18
9525;BME280;15940;48.734;9.112;2023-07-13T10:39:18;96741.94;;;25.16;37.23
9525;BME280;15940;48.734;9.112;2023-07-13T10:41:50;96729.38;;;25.05;36.02
9525;BME280;15940;48.734;9.112;2023-07-13T10:44:23;96726.28;;;24.55;37.35
9525;BME280;15940;48.734;9.112;2023-07-13T10:46:55;96737.47;;;24.47;39.98
9525;BME280;15940;48.734;9.112;2023-07-13T10:49:23;96732.53;;;24.46;38.26
9525;BME280;15940;48.734;9.112;2023-07-13T10:51:50;96728.13;;;24.43;39.33
9525;BME280;15940;48.734;9.112;2023-07-13T10:54:22;96735.91;;;24.27;37.94
9525;BME280;15940;48.734;9.112;2023-07-13T10:57:10;96729.34;;;24.59;38.92
9525;BME280;15940;48.734;9.112;2023-07-13T10:59:42;96725.13;;;25.04;39.07
9525;BME280;15940;48.734;9.112;2023-07-13T11:02:23;96727.22;;;25.52;37.36
9525;BME280;15940;48.734;9.112;2023-07-13T11:04:54;96727.50;;;25.66;36.59
9525;BME280;15940;48.734;9.112;2023-07-13T11:07:24;96714.66;;;25.51;36.32
9525;BME280;15940;48.734;9.112;2023-07-13T11:09:56;96711.75;;;25.59;37.60
9525;BME280;15940;48.734;9.112;2023-07-13T11:12:48;96715.47;;;26.12;37.29
9525;BME280;15940;48.734;9.112;2023-07-13T11:15:32;96710.00;;;26.24;34.89
9525;BME280;15940;48.734;9.112;2023-07-13T11:18:04;96706.88;;;26.08;34.71
9525;BME280;15940;48.734;9.112;2023-07-13T11:20:35;96706.56;;;26.04;36.18
9525;BME280;15940;48.734;9.112;2023-07-13T11:23:29;96707.88;;;26.63;36.45
9525;BME280;15940;48.734;9.112;2023-07-13T11:25:58;96704.13;;;27.01;35.46
9525;BME280;15940;48.734;9.112;2023-07-13T11:28:29;96705.19;;;27.17;35.79
9525;BME280;15940;48.734;9.112;2023-07-13T11:33:57;96695.75;;;27.11;36.52
9525;BME280;15940;48.734;9.112;2023-07-13T11:36:31;96699.69;;;26.86;34.88
9525;BME280;15940;48.734;9.112;2023-07-13T11:39:05;96698.00;;;26.40;36.20
9525;BME280;15940;48.734;9.112;2023-07-13T11:41:48;96694.25;;;26.26;36.23
9525;BME280;15940;48.734;9.112;2023-07-13T11:44:19;96698.56;;;26.48;37.02
9525;BME280;15940;48.734;9.112;2023-07-13T11:46:49;96705.09;;;26.12;36.44
9525;BME280;15940;48.734;9.112;2023-07-13T11:49:19;96688.75;;;26.07;34.73
9525;BME280;15940;48.734;9.112;2023-07-13T11:51:47;96691.03;;;26.20;36.09
9525;BME280;15940;48.734;9.112;2023-07-13T11:54:26;96691.88;;;26.32;36.90
9525;BME280;15940;48.734;9.112;2023-07-13T11:56:59;96701.59;;;26.53;35.73
9525;BME280;15940;48.734;9.112;2023-07-13T11:59:29;96705.03;;;26.32;35.32
9525;BME280;15940;48.734;9.112;2023-07-13T12:01:58;96703.59;;;25.71;36.89
9525;BME280;15940;48.734;9.112;2023-07-13T12:04:29;96711.44;;;25.26;38.10
9525;BME280;15940;48.734;9.112;2023-07-13T12:07:05;96698.91;;;25.34;37.43
9525;BME280;15940;48.734;9.112;2023-07-13T12:09:34;96705.19;;;25.74;35.80
9525;BME280;15940;48.734;9.112;2023-07-13T12:12:11;96707.94;;;25.54;36.30
9525;BME280;15940;48.734;9.112;2023-07-13T12:14:39;96701.81;;;25.46;36.32
9525;BME280;15940;48.734;9.112;2023-07-13T12:17:13;96701.50;;;25.90;35.49
9525;BME280;15940;48.734;9.112;2023-07-13T12:19:41;96700.06;;;26.40;35.31
9525;BME280;15940;48.734;9.112;2023-07-13T12:22:12;96695.03;;;26.79;33.27
9525;BME280;15940;48.734;9.112;2023-07-13T12:24:41;96691.59;;;26.69;34.01
9525;BME280;15940;48.734;9.112;2023-07-13T12:27:20;96698.97;;;26.55;35.12
9525;BME280;15940;48.734;9.112;2023-07-13T12:29:57;96691.31;;;26.24;36.17
9525;BME280;15940;48.734;9.112;2023-07-13T12:32:25;96699.78;;;26.26;34.69
9525;BME280;15940;48.734;9.112;2023-07-13T12:34:54;96702.84;;;26.40;35.23
9525;BME280;15940;48.734;9.112;2023-07-13T12:37:22;96701.97;;;26.68;34.62
9525;BME280;15940;48.734;9.112;2023-07-13T12:39:50;96695.50;;;26.97;34.41
9525;BME280;15940;48.734;9.112;2023-07-13T12:42:24;96691.03;;;27.35;34.59
9525;BME280;15940;48.734;9.112;2023-07-13T12:44:54;96690.03;;;27.63;33.75
9525;BME280;15940;48.734;9.112;2023-07-13T12:47:23;96699.47;;;27.91;33.66
9525;BME280;15940;48.734;9.112;2023-07-13T12:49:53;96693.31;;;28.04;32.95
9525;BME280;15940;48.734;9.112;2023-07-13T12:52:27;96689.84;;;28.15;33.80
9525;BME280;15940;48.734;9.112;2023-07-13T12:54:58;96686.78;;;28.00;33.85
9525;BME280;15940;48.734;9.112;2023-07-13T12:57:27;96688.66;;;27.74;33.19
9525;BME280;15940;48.734;9.112;2023-07-13T12:59:54;96686.00;;;27.76;33.28
9525;BME280;15940;48.734;9.112;2023-07-13T13:02:29;96690.91;;;27.99;33.52
9525;BME280;15940;48.734;9.112;2023-07-13T13:04:57;96704.75;;;27.75;33.01
9525;BME280;15940;48.734;9.112;2023-07-13T13:07:25;96693.25;;;27.48;32.93
9525;BME280;15940;48.734;9.112;2023-07-13T13:09:52;96688.72;;;27.64;33.66
9525;BME280;15940;48.734;9.112;2023-07-13T13:12:21;96694.44;;;27.66;33.49
9525;BME280;15940;48.734;9.112;2023-07-13T13:14:51;96697.59;;;27.72;31.98
9525;BME280;15940;48.734;9.112;2023-07-13T13:17:22;96686.38;;;27.82;32.91
9525;BME280;15940;48.734;9.112;2023-07-13T13:19:50;96696.09;;;27.59;33.88
9525;BME280;15940;48.734;9.112;2023-07-13T13:22:18;96681.09;;;27.65;33.60
9525;BME280;15940;48.734;9.112;2023-07-13T13:24:45;96689.91;;;27.07;32.93